sensor_id;sensor_type;location;lat;lon;timestamp;P1;durP1;ratioP1;P2;durP2;ratioP2
9280;SDS011;4679;47.966;7.958;2023-03-01T06:36:39;22.07;;;12.27;;
9280;SDS011;4679;47.966;7.958;2023-03-01T06:38:41;20.87;;;12.53;;
9280;SDS011;4679;47.966;7.958;2023-03-01T06:40:43;17.10;;;12.03;;
9280;SDS011;4679;47.966;7.958;2023-03-01T06:42:47;18.93;;;12.30;;
9280;SDS011;4679;47.966;7.958;2023-03-01T06:44:50;16.67;;;11.73;;
9280;SDS011;4679;47.966;7.958;2023-03-01T06:46:52;16.77;;;11.17;;
9280;SDS011;4679;47.966;7.958;2023-03-01T06:48:54;19.90;;;11.87;;
9280;SDS011;4679;47.966;7.958;2023-03-01T06:50:57;17.40;;;11.80;;
9280;SDS011;4679;47.966;7.958;2023-03-01T06:53:00;17.83;;;11.67;;
9280;SDS011;4679;47.966;7.958;2023-03-01T06:55:03;20.33;;;13.03;;
9280;SDS011;4679;47.966;7.958;2023-03-01T06:57:05;18.70;;;11.97;;
9280;SDS011;4679;47.966;7.958;2023-03-01T06:59:07;21.00;;;12.13;;
9280;SDS011;4679;47.966;7.958;2023-03-01T07:01:09;18.63;;;11.30;;
9280;SDS011;4679;47.966;7.958;2023-03-01T07:03:10;19.07;;;11.77;;
9280;SDS011;4679;47.966;7.958;2023-03-01T07:05:12;18.40;;;11.97;;
9280;SDS011;4679;47.966;7.958;2023-03-01T07:07:13;20.40;;;13.60;;
9280;SDS011;4679;47.966;7.958;2023-03-01T07:09:17;17.27;;;11.63;;
9280;SDS011;4679;47.966;7.958;2023-03-01T07:11:19;16.53;;;11.70;;
9280;SDS011;4679;47.966;7.958;2023-03-01T07:13:21;16.77;;;11.13;;
9280;SDS011;4679;47.966;7.958;2023-03-01T07:15:23;16.33;;;11.87;;
9280;SDS011;4679;47.966;7.958;2023-03-01T07:17:25;14.83;;;10.57;;
9280;SDS011;4679;47.966;7.958;2023-03-01T07:19:26;18.23;;;11.47;;
9280;SDS011;4679;47.966;7.958;2023-03-01T07:21:28;16.97;;;11.80;;
9280;SDS011;4679;47.966;7.958;2023-03-01T07:23:30;17.93;;;12.13;;
9280;SDS011;4679;47.966;7.958;2023-03-01T07:25:33;23.47;;;12.73;;
9280;SDS011;4679;47.966;7.958;2023-03-01T07:27:35;18.60;;;11.57;;
9280;SDS011;4679;47.966;7.958;2023-03-01T07:29:37;16.77;;;11.27;;
9280;SDS011;4679;47.966;7.958;2023-03-01T07:31:38;20.03;;;13.00;;
9280;SDS011;4679;47.966;7.958;2023-03-01T07:33:40;20.57;;;12.43;;
9280;SDS011;4679;47.966;7.958;2023-03-01T07:35:42;18.23;;;11.13;;
9280;SDS011;4679;47.966;7.958;2023-03-01T07:37:43;14.80;;;10.43;;
9280;SDS011;4679;47.966;7.958;2023-03-01T07:39:45;21.73;;;13.30;;
9280;SDS011;4679;47.966;7.958;2023-03-01T07:41:48;14.63;;;10.77;;
9280;SDS011;4679;47.966;7.958;2023-03-01T07:43:50;18.33;;;11.10;;
9280;SDS011;4679;47.966;7.958;2023-03-01T07:45:52;17.83;;;10.97;;
9280;SDS011;4679;47.966;7.958;2023-03-01T07:47:54;16.60;;;10.70;;
9280;SDS011;4679;47.966;7.958;2023-03-01T07:49:56;20.00;;;11.53;;
9280;SDS011;4679;47.966;7.958;2023-03-01T07:51:57;18.03;;;11.40;;
9280;SDS011;4679;47.966;7.958;2023-03-01T07:53:59;16.10;;;10.40;;
9280;SDS011;4679;47.966;7.958;2023-03-01T07:56:01;17.37;;;11.33;;
9280;SDS011;4679;47.966;7.958;2023-03-01T07:58:05;18.00;;;11.20;;
9280;SDS011;4679;47.966;7.958;2023-03-01T08:00:08;19.00;;;10.33;;
9280;SDS011;4679;47.966;7.958;2023-03-01T08:02:12;17.53;;;10.93;;
9280;SDS011;4679;47.966;7.958;2023-03-01T08:04:15;15.43;;;11.00;;
9280;SDS011;4679;47.966;7.958;2023-03-01T08:06:17;18.10;;;11.87;;
9280;SDS011;4679;47.966;7.958;2023-03-01T08:08:19;18.93;;;11.87;;
9280;SDS011;4679;47.966;7.958;2023-03-01T08:10:21;20.67;;;12.57;;
9280;SDS011;4679;47.966;7.958;2023-03-01T08:12:23;15.90;;;10.70;;
9280;SDS011;4679;47.966;7.958;2023-03-01T08:14:26;15.73;;;10.90;;
9280;SDS011;4679;47.966;7.958;2023-03-01T08:16:28;16.30;;;10.83;;
9280;SDS011;4679;47.966;7.958;2023-03-01T08:18:29;21.77;;;11.20;;
9280;SDS011;4679;47.966;7.958;2023-03-01T08:20:31;14.70;;;10.40;;
9280;SDS011;4679;47.966;7.958;2023-03-01T08:22:33;17.50;;;10.67;;
9280;SDS011;4679;47.966;7.958;2023-03-01T08:24:34;18.17;;;10.93;;
9280;SDS011;4679;47.966;7.958;2023-03-01T08:26:36;13.50;;;10.37;;
9280;SDS011;4679;47.966;7.958;2023-03-01T08:28:38;17.03;;;12.23;;
9280;SDS011;4679;47.966;7.958;2023-03-01T08:30:41;17.00;;;12.30;;
9280;SDS011;4679;47.966;7.958;2023-03-01T08:32:43;17.77;;;12.30;;
9280;SDS011;4679;47.966;7.958;2023-03-01T08:34:45;13.97;;;10.17;;
9280;SDS011;4679;47.966;7.958;2023-03-01T08:36:47;15.90;;;10.97;;
9280;SDS011;4679;47.966;7.958;2023-03-01T08:38:50;18.47;;;11.37;;
9280;SDS011;4679;47.966;7.958;2023-03-01T08:40:53;15.27;;;10.53;;
9280;SDS011;4679;47.966;7.958;2023-03-01T08:42:54;16.00;;;10.57;;
9280;SDS011;4679;47.966;7.958;2023-03-01T08:44:56;14.93;;;10.83;;
9280;SDS011;4679;47.966;7.958;2023-03-01T08:46:59;18.03;;;11.30;;
9280;SDS011;4679;47.966;7.958;2023-03-01T08:49:03;17.43;;;11.07;;
9280;SDS011;4679;47.966;7.958;2023-03-01T08:51:08;16.27;;;10.07;;
9280;SDS011;4679;47.966;7.958;2023-03-01T08:53:10;17.03;;;11.33;;
9280;SDS011;4679;47.966;7.958;2023-03-01T08:55:12;16.57;;;10.43;;
9280;SDS011;4679;47.966;7.958;2023-03-01T08:57:16;18.43;;;10.87;;
9280;SDS011;4679;47.966;7.958;2023-03-01T08:59:18;13.73;;;9.27;;
9280;SDS011;4679;47.966;7.958;2023-03-01T09:01:19;16.73;;;9.63;;
9280;SDS011;4679;47.966;7.958;2023-03-01T09:03:22;13.97;;;9.50;;
9280;SDS011;4679;47.966;7.958;2023-03-01T09:05:24;14.87;;;10.97;;
9280;SDS011;4679;47.966;7.958;2023-03-01T09:07:26;13.63;;;9.23;;
9280;SDS011;4679;47.966;7.958;2023-03-01T09:09:29;14.63;;;9.67;;
9280;SDS011;4679;47.966;7.958;2023-03-01T09:11:31;14.30;;;8.90;;
9280;SDS011;4679;47.966;7.958;2023-03-01T09:13:33;17.63;;;10.07;;
9280;SDS011;4679;47.966;7.958;2023-03-01T09:15:36;14.23;;;9.80;;
9280;SDS011;4679;47.966;7.958;2023-03-01T09:17:38;12.17;;;9.40;;
9280;SDS011;4679;47.966;7.958;2023-03-01T09:19:41;12.93;;;9.80;;
9280;SDS011;4679;47.966;7.958;2023-03-01T09:21:42;15.00;;;9.60;;
9280;SDS011;4679;47.966;7.958;2023-03-01T09:23:52;13.13;;;8.97;;
9280;SDS011;4679;47.966;7.958;2023-03-01T09:25:53;13.20;;;9.40;;
9280;SDS011;4679;47.966;7.958;2023-03-01T09:27:55;13.47;;;9.90;;
9280;SDS011;4679;47.966;7.958;2023-03-01T09:29:56;13.67;;;9.30;;
9280;SDS011;4679;47.966;7.958;2023-03-01T09:31:58;16.23;;;9.87;;
9280;SDS011;4679;47.966;7.958;2023-03-01T09:34:00;14.93;;;10.20;;
9280;SDS011;4679;47.966;7.958;2023-03-01T09:36:04;11.33;;;8.70;;
9280;SDS011;4679;47.966;7.958;2023-03-01T09:38:08;12.90;;;9.70;;
9280;SDS011;4679;47.966;7.958;2023-03-01T09:40:11;13.30;;;8.87;;
9280;SDS011;4679;47.966;7.958;2023-03-01T09:42:16;14.17;;;9.43;;
9280;SDS011;4679;47.966;7.958;2023-03-01T09:44:20;13.57;;;9.60;;
9280;SDS011;4679;47.966;7.958;2023-03-01T09:46:37;13.67;;;9.67;;
9280;SDS011;4679;47.966;7.958;2023-03-01T09:48:43;14.57;;;9.63;;
9280;SDS011;4679;47.966;7.958;2023-03-01T09:50:49;15.00;;;10.37;;
9280;SDS011;4679;47.966;7.958;2023-03-01T09:52:58;13.40;;;9.50;;
9280;SDS011;4679;47.966;7.958;2023-03-01T09:55:04;14.10;;;9.37;;
9280;SDS011;4679;47.966;7.958;2023-03-01T09:57:15;14.77;;;9.43;;
9280;SDS011;4679;47.966;7.958;2023-03-01T09:59:22;14.63;;;10.63;;
9280;SDS011;4679;47.966;7.958;2023-03-01T10:01:32;14.00;;;10.37;;
9280;SDS011;4679;47.966;7.958;2023-03-01T10:03:36;15.60;;;10.03;;
9280;SDS011;4679;47.966;7.958;2023-03-01T10:05:54;16.43;;;9.90;;
9280;SDS011;4679;47.966;7.958;2023-03-01T10:08:06;13.50;;;9.03;;
9280;SDS011;4679;47.966;7.958;2023-03-01T10:10:32;14.40;;;9.47;;
9280;SDS011;4679;47.966;7.958;2023-03-01T10:12:37;12.70;;;9.27;;
9280;SDS011;4679;47.966;7.958;2023-03-01T10:14:43;14.80;;;10.40;;
9280;SDS011;4679;47.966;7.958;2023-03-01T10:16:51;13.73;;;9.50;;
9280;SDS011;4679;47.966;7.958;2023-03-01T10:18:59;14.13;;;9.00;;
9280;SDS011;4679;47.966;7.958;2023-03-01T10:21:07;15.17;;;10.00;;
9280;SDS011;4679;47.966;7.958;2023-03-01T10:23:17;13.87;;;9.10;;
9280;SDS011;4679;47.966;7.958;2023-03-01T10:25:25;14.47;;;9.13;;
9280;SDS011;4679;47.966;7.958;2023-03-01T10:27:45;13.20;;;9.80;;
9280;SDS011;4679;47.966;7.958;2023-03-01T10:29:52;14.77;;;9.87;;
9280;SDS011;4679;47.966;7.958;2023-03-01T10:32:01;12.00;;;8.37;;
9280;SDS011;4679;47.966;7.958;2023-03-01T10:34:08;14.40;;;9.67;;
9280;SDS011;4679;47.966;7.958;2023-03-01T10:36:12;14.63;;;9.53;;
9280;SDS011;4679;47.966;7.958;2023-03-01T10:38:14;14.63;;;9.80;;
9280;SDS011;4679;47.966;7.958;2023-03-01T10:40:18;12.10;;;9.53;;
9280;SDS011;4679;47.966;7.958;2023-03-01T10:42:22;14.37;;;9.90;;
9280;SDS011;4679;47.966;7.958;2023-03-01T10:44:35;14.60;;;10.43;;
9280;SDS011;4679;47.966;7.958;2023-03-01T10:46:39;14.73;;;10.17;;
9280;SDS011;4679;47.966;7.958;2023-03-01T10:48:41;14.70;;;9.23;;
9280;SDS011;4679;47.966;7.958;2023-03-01T10:50:43;13.23;;;9.57;;
9280;SDS011;4679;47.966;7.958;2023-03-01T10:52:56;14.63;;;10.03;;
9280;SDS011;4679;47.966;7.958;2023-03-01T10:55:01;14.83;;;10.30;;
9280;SDS011;4679;47.966;7.958;2023-03-01T10:57:10;12.53;;;9.53;;
9280;SDS011;4679;47.966;7.958;2023-03-01T10:59:30;12.60;;;9.43;;
9280;SDS011;4679;47.966;7.958;2023-03-01T11:01:33;14.10;;;9.43;;
9280;SDS011;4679;47.966;7.958;2023-03-01T11:03:36;13.60;;;10.03;;
9280;SDS011;4679;47.966;7.958;2023-03-01T11:05:52;13.67;;;9.33;;
9280;SDS011;4679;47.966;7.958;2023-03-01T11:08:05;13.33;;;9.03;;
9280;SDS011;4679;47.966;7.958;2023-03-01T11:10:11;11.07;;;9.43;;
9280;SDS011;4679;47.966;7.958;2023-03-01T11:12:14;14.30;;;9.53;;
9280;SDS011;4679;47.966;7.958;2023-03-01T11:14:17;15.20;;;10.43;;
9280;SDS011;4679;47.966;7.958;2023-03-01T11:16:23;14.47;;;9.37;;
9280;SDS011;4679;47.966;7.958;2023-03-01T11:18:26;13.60;;;9.20;;
9280;SDS011;4679;47.966;7.958;2023-03-01T11:20:32;14.30;;;10.13;;
9280;SDS011;4679;47.966;7.958;2023-03-01T11:22:36;14.23;;;9.90;;
9280;SDS011;4679;47.966;7.958;2023-03-01T11:24:49;13.67;;;9.30;;
9280;SDS011;4679;47.966;7.958;2023-03-01T11:26:53;12.03;;;9.43;;
9280;SDS011;4679;47.966;7.958;2023-03-01T11:28:58;14.27;;;9.90;;
9280;SDS011;4679;47.966;7.958;2023-03-01T11:31:05;12.70;;;9.47;;
9280;SDS011;4679;47.966;7.958;2023-03-01T11:33:15;13.33;;;9.33;;
9280;SDS011;4679;47.966;7.958;2023-03-01T11:35:21;14.23;;;9.87;;
9280;SDS011;4679;47.966;7.958;2023-03-01T11:37:30;13.47;;;9.63;;
9280;SDS011;4679;47.966;7.958;2023-03-01T11:39:37;13.40;;;9.00;;
9280;SDS011;4679;47.966;7.958;2023-03-01T11:41:45;12.17;;;9.23;;
9280;SDS011;4679;47.966;7.958;2023-03-01T11:43:52;15.93;;;9.63;;
9280;SDS011;4679;47.966;7.958;2023-03-01T11:46:06;12.17;;;9.53;;
9280;SDS011;4679;47.966;7.958;2023-03-01T11:48:37;14.30;;;10.03;;
9280;SDS011;4679;47.966;7.958;2023-03-01T11:50:51;11.70;;;7.97;;
9280;SDS011;4679;47.966;7.958;2023-03-01T11:53:09;11.37;;;8.13;;
9280;SDS011;4679;47.966;7.958;2023-03-01T11:55:26;13.53;;;8.60;;
9280;SDS011;4679;47.966;7.958;2023-03-01T11:57:54;13.97;;;8.97;;
9280;SDS011;4679;47.966;7.958;2023-03-01T12:00:14;11.27;;;8.27;;
9280;SDS011;4679;47.966;7.958;2023-03-01T12:02:40;13.17;;;9.80;;
9280;SDS011;4679;47.966;7.958;2023-03-01T12:05:20;13.33;;;8.60;;
9280;SDS011;4679;47.966;7.958;2023-03-01T12:07:42;14.67;;;9.70;;
9280;SDS011;4679;47.966;7.958;2023-03-01T12:09:59;14.40;;;9.20;;
9280;SDS011;4679;47.966;7.958;2023-03-01T12:12:25;12.73;;;9.00;;
9280;SDS011;4679;47.966;7.958;2023-03-01T12:14:39;13.80;;;8.43;;
9280;SDS011;4679;47.966;7.958;2023-03-01T12:17:00;14.07;;;10.03;;
9280;SDS011;4679;47.966;7.958;2023-03-01T12:19:15;12.63;;;9.00;;
9280;SDS011;4679;47.966;7.958;2023-03-01T12:21:31;12.93;;;8.27;;
9280;SDS011;4679;47.966;7.958;2023-03-01T12:26:08;11.77;;;8.70;;
9280;SDS011;4679;47.966;7.958;2023-03-01T12:28:18;10.17;;;8.33;;
9280;SDS011;4679;47.966;7.958;2023-03-01T12:30:35;14.30;;;9.20;;
9280;SDS011;4679;47.966;7.958;2023-03-01T12:32:50;11.00;;;9.17;;
9280;SDS011;4679;47.966;7.958;2023-03-01T12:35:08;12.80;;;8.80;;
9280;SDS011;4679;47.966;7.958;2023-03-01T12:37:29;11.40;;;8.67;;
9280;SDS011;4679;47.966;7.958;2023-03-01T12:39:41;11.93;;;8.47;;
9280;SDS011;4679;47.966;7.958;2023-03-01T12:41:55;11.73;;;8.27;;
9280;SDS011;4679;47.966;7.958;2023-03-01T12:44:11;11.73;;;9.40;;
9280;SDS011;4679;47.966;7.958;2023-03-01T12:46:33;12.30;;;9.60;;
9280;SDS011;4679;47.966;7.958;2023-03-01T12:48:47;12.33;;;8.93;;
9280;SDS011;4679;47.966;7.958;2023-03-01T12:50:57;13.20;;;9.23;;
9280;SDS011;4679;47.966;7.958;2023-03-01T12:53:02;12.07;;;9.07;;
9280;SDS011;4679;47.966;7.958;2023-03-01T12:55:06;12.83;;;9.73;;
9280;SDS011;4679;47.966;7.958;2023-03-01T12:57:26;14.50;;;10.93;;
9280;SDS011;4679;47.966;7.958;2023-03-01T12:59:38;11.83;;;8.57;;
9280;SDS011;4679;47.966;7.958;2023-03-01T13:01:45;13.37;;;9.77;;
9280;SDS011;4679;47.966;7.958;2023-03-01T13:04:05;13.90;;;10.10;;
9280;SDS011;4679;47.966;7.958;2023-03-01T13:06:16;11.23;;;9.43;;
9280;SDS011;4679;47.966;7.958;2023-03-01T13:08:25;12.63;;;10.03;;
9280;SDS011;4679;47.966;7.958;2023-03-01T13:10:33;11.90;;;9.73;;
9280;SDS011;4679;47.966;7.958;2023-03-01T13:12:42;12.07;;;9.77;;
9280;SDS011;4679;47.966;7.958;2023-03-01T13:14:53;14.43;;;9.93;;
9280;SDS011;4679;47.966;7.958;2023-03-01T13:16:55;18.30;;;10.87;;
9280;SDS011;4679;47.966;7.958;2023-03-01T13:19:05;13.40;;;10.03;;
9280;SDS011;4679;47.966;7.958;2023-03-01T13:21:08;14.83;;;10.30;;
9280;SDS011;4679;47.966;7.958;2023-03-01T13:23:12;14.73;;;10.50;;
9280;SDS011;4679;47.966;7.958;2023-03-01T13:25:25;14.90;;;10.13;;
9280;SDS011;4679;47.966;7.958;2023-03-01T13:27:27;12.43;;;10.20;;
9280;SDS011;4679;47.966;7.958;2023-03-01T13:29:30;12.03;;;9.50;;
9280;SDS011;4679;47.966;7.958;2023-03-01T13:34:04;14.93;;;10.23;;
9280;SDS011;4679;47.966;7.958;2023-03-01T13:36:07;12.33;;;9.83;;
9280;SDS011;4679;47.966;7.958;2023-03-01T13:40:57;11.60;;;8.97;;
9280;SDS011;4679;47.966;7.958;2023-03-01T13:43:14;14.97;;;10.27;;
9280;SDS011;4679;47.966;7.958;2023-03-01T13:45:32;14.23;;;9.43;;
9280;SDS011;4679;47.966;7.958;2023-03-01T13:47:39;15.40;;;10.27;;
9280;SDS011;4679;47.966;7.958;2023-03-01T13:49:47;15.53;;;10.50;;
9280;SDS011;4679;47.966;7.958;2023-03-01T13:51:51;12.47;;;9.80;;
9280;SDS011;4679;47.966;7.958;2023-03-01T13:53:54;13.50;;;9.63;;
9280;SDS011;4679;47.966;7.958;2023-03-01T13:56:00;11.73;;;9.17;;
9280;SDS011;4679;47.966;7.958;2023-03-01T13:58:04;11.30;;;9.67;;
9280;SDS011;4679;47.966;7.958;2023-03-01T14:00:26;14.47;;;10.87;;
9280;SDS011;4679;47.966;7.958;2023-03-01T14:02:29;15.17;;;10.57;;
9280;SDS011;4679;47.966;7.958;2023-03-01T14:04:32;15.70;;;10.20;;
9280;SDS011;4679;47.966;7.958;2023-03-01T14:06:35;12.37;;;10.50;;
9280;SDS011;4679;47.966;7.958;2023-03-01T14:08:37;15.50;;;10.90;;
9280;SDS011;4679;47.966;7.958;2023-03-01T14:10:43;13.87;;;11.73;;
9280;SDS011;4679;47.966;7.958;2023-03-01T14:12:55;14.00;;;9.90;;
9280;SDS011;4679;47.966;7.958;2023-03-01T14:15:07;13.03;;;10.43;;
9280;SDS011;4679;47.966;7.958;2023-03-01T14:17:23;14.73;;;9.70;;
9280;SDS011;4679;47.966;7.958;2023-03-01T14:19:38;14.17;;;10.83;;
9280;SDS011;4679;47.966;7.958;2023-03-01T14:21:45;14.00;;;10.30;;
9280;SDS011;4679;47.966;7.958;2023-03-01T14:23:47;13.43;;;9.87;;
9280;SDS011;4679;47.966;7.958;2023-03-01T14:25:51;12.67;;;9.90;;
9280;SDS011;4679;47.966;7.958;2023-03-01T14:27:55;13.57;;;9.57;;
9280;SDS011;4679;47.966;7.958;2023-03-01T14:30:10;11.40;;;8.73;;
9280;SDS011;4679;47.966;7.958;2023-03-01T14:32:17;14.47;;;9.53;;
9280;SDS011;4679;47.966;7.958;2023-03-01T14:34:21;13.40;;;10.07;;
9280;SDS011;4679;47.966;7.958;2023-03-01T14:36:25;11.93;;;9.03;;
9280;SDS011;4679;47.966;7.958;2023-03-01T14:38:29;13.43;;;9.93;;
9280;SDS011;4679;47.966;7.958;2023-03-01T14:40:35;12.60;;;9.33;;
9280;SDS011;4679;47.966;7.958;2023-03-01T14:42:39;12.67;;;9.90;;
9280;SDS011;4679;47.966;7.958;2023-03-01T14:44:41;13.53;;;9.97;;
9280;SDS011;4679;47.966;7.958;2023-03-01T14:46:44;13.13;;;9.17;;
9280;SDS011;4679;47.966;7.958;2023-03-01T14:48:48;11.57;;;9.77;;
9280;SDS011;4679;47.966;7.958;2023-03-01T14:50:51;10.93;;;9.30;;
9280;SDS011;4679;47.966;7.958;2023-03-01T14:52:53;12.37;;;9.87;;
9280;SDS011;4679;47.966;7.958;2023-03-01T14:54:57;13.80;;;10.27;;
9280;SDS011;4679;47.966;7.958;2023-03-01T14:56:59;11.70;;;9.30;;
9280;SDS011;4679;47.966;7.958;2023-03-01T14:59:03;11.60;;;9.73;;
9280;SDS011;4679;47.966;7.958;2023-03-01T15:01:05;12.00;;;9.93;;
9280;SDS011;4679;47.966;7.958;2023-03-01T15:03:11;10.37;;;9.27;;
9280;SDS011;4679;47.966;7.958;2023-03-01T15:05:16;10.90;;;9.07;;
9280;SDS011;4679;47.966;7.958;2023-03-01T15:07:26;10.50;;;9.30;;
9280;SDS011;4679;47.966;7.958;2023-03-01T15:09:31;11.80;;;9.03;;
9280;SDS011;4679;47.966;7.958;2023-03-01T15:11:35;14.60;;;9.50;;
9280;SDS011;4679;47.966;7.958;2023-03-01T15:13:41;12.40;;;10.07;;
9280;SDS011;4679;47.966;7.958;2023-03-01T15:15:45;11.47;;;9.93;;
9280;SDS011;4679;47.966;7.958;2023-03-01T15:17:50;9.97;;;8.97;;
9280;SDS011;4679;47.966;7.958;2023-03-01T15:19:56;12.47;;;10.00;;
9280;SDS011;4679;47.966;7.958;2023-03-01T15:21:58;13.10;;;9.90;;
9280;SDS011;4679;47.966;7.958;2023-03-01T15:24:00;12.37;;;9.80;;
9280;SDS011;4679;47.966;7.958;2023-03-01T15:26:04;14.17;;;10.33;;
9280;SDS011;4679;47.966;7.958;2023-03-01T15:28:12;14.50;;;10.03;;
9280;SDS011;4679;47.966;7.958;2023-03-01T15:30:21;12.57;;;9.53;;
9280;SDS011;4679;47.966;7.958;2023-03-01T15:32:28;13.70;;;10.27;;
9280;SDS011;4679;47.966;7.958;2023-03-01T15:34:32;12.13;;;9.90;;
9280;SDS011;4679;47.966;7.958;2023-03-01T15:36:36;11.23;;;9.63;;
9280;SDS011;4679;47.966;7.958;2023-03-01T15:38:50;10.37;;;9.23;;
9280;SDS011;4679;47.966;7.958;2023-03-01T15:40:55;11.70;;;9.90;;
9280;SDS011;4679;47.966;7.958;2023-03-01T15:42:57;10.53;;;9.43;;
9280;SDS011;4679;47.966;7.958;2023-03-01T15:45:07;13.60;;;10.10;;
9280;SDS011;4679;47.966;7.958;2023-03-01T15:47:23;11.90;;;8.97;;
9280;SDS011;4679;47.966;7.958;2023-03-01T15:49:33;14.60;;;10.07;;
9280;SDS011;4679;47.966;7.958;2023-03-01T15:51:39;11.13;;;9.17;;
9280;SDS011;4679;47.966;7.958;2023-03-01T15:53:40;12.03;;;10.47;;
9280;SDS011;4679;47.966;7.958;2023-03-01T15:55:42;14.37;;;10.90;;
9280;SDS011;4679;47.966;7.958;2023-03-01T15:57:45;12.03;;;9.67;;
9280;SDS011;4679;47.966;7.958;2023-03-01T15:59:48;11.40;;;10.10;;
9280;SDS011;4679;47.966;7.958;2023-03-01T16:01:49;12.60;;;10.50;;
9280;SDS011;4679;47.966;7.958;2023-03-01T16:03:51;12.43;;;10.40;;
9280;SDS011;4679;47.966;7.958;2023-03-01T16:05:55;15.33;;;11.27;;
9280;SDS011;4679;47.966;7.958;2023-03-01T16:07:57;12.90;;;10.03;;
9280;SDS011;4679;47.966;7.958;2023-03-01T16:09:58;13.10;;;10.70;;
9280;SDS011;4679;47.966;7.958;2023-03-01T16:12:00;14.10;;;9.97;;
9280;SDS011;4679;47.966;7.958;2023-03-01T16:14:02;14.30;;;10.67;;
9280;SDS011;4679;47.966;7.958;2023-03-01T16:16:04;15.63;;;9.50;;
9280;SDS011;4679;47.966;7.958;2023-03-01T16:18:06;15.03;;;11.00;;
9280;SDS011;4679;47.966;7.958;2023-03-01T16:20:10;14.80;;;10.97;;
9280;SDS011;4679;47.966;7.958;2023-03-01T16:22:13;16.30;;;11.07;;
9280;SDS011;4679;47.966;7.958;2023-03-01T16:24:15;15.73;;;12.30;;
9280;SDS011;4679;47.966;7.958;2023-03-01T16:26:17;18.57;;;12.23;;
9280;SDS011;4679;47.966;7.958;2023-03-01T16:28:19;17.67;;;11.87;;
9280;SDS011;4679;47.966;7.958;2023-03-01T16:30:22;18.80;;;12.77;;
9280;SDS011;4679;47.966;7.958;2023-03-01T16:32:24;16.90;;;12.37;;
9280;SDS011;4679;47.966;7.958;2023-03-01T16:34:26;17.47;;;13.47;;
9280;SDS011;4679;47.966;7.958;2023-03-01T16:36:27;18.03;;;13.27;;
9280;SDS011;4679;47.966;7.958;2023-03-01T16:38:32;17.63;;;13.23;;
9280;SDS011;4679;47.966;7.958;2023-03-01T16:40:34;20.50;;;13.57;;
9280;SDS011;4679;47.966;7.958;2023-03-01T16:42:36;19.07;;;14.17;;
9280;SDS011;4679;47.966;7.958;2023-03-01T16:44:38;19.77;;;14.27;;
9280;SDS011;4679;47.966;7.958;2023-03-01T16:46:40;23.03;;;13.87;;
9280;SDS011;4679;47.966;7.958;2023-03-01T16:48:43;20.63;;;14.80;;
9280;SDS011;4679;47.966;7.958;2023-03-01T16:50:44;21.00;;;14.67;;
9280;SDS011;4679;47.966;7.958;2023-03-01T16:52:46;24.90;;;16.13;;
9280;SDS011;4679;47.966;7.958;2023-03-01T16:54:49;22.83;;;15.37;;
9280;SDS011;4679;47.966;7.958;2023-03-01T16:56:51;22.17;;;14.53;;
9280;SDS011;4679;47.966;7.958;2023-03-01T16:58:53;19.37;;;14.07;;
9280;SDS011;4679;47.966;7.958;2023-03-01T17:00:54;35.03;;;20.97;;
9280;SDS011;4679;47.966;7.958;2023-03-01T17:02:57;22.37;;;15.10;;
9280;SDS011;4679;47.966;7.958;2023-03-01T17:04:58;20.87;;;13.87;;
9280;SDS011;4679;47.966;7.958;2023-03-01T17:07:00;25.10;;;15.50;;
9280;SDS011;4679;47.966;7.958;2023-03-01T17:09:02;22.60;;;15.77;;
9280;SDS011;4679;47.966;7.958;2023-03-01T17:11:06;19.80;;;14.40;;
9280;SDS011;4679;47.966;7.958;2023-03-01T17:13:08;21.83;;;15.07;;
9280;SDS011;4679;47.966;7.958;2023-03-01T17:15:10;33.07;;;20.17;;
9280;SDS011;4679;47.966;7.958;2023-03-01T17:17:13;35.47;;;22.40;;
9280;SDS011;4679;47.966;7.958;2023-03-01T17:19:14;30.93;;;18.93;;
9280;SDS011;4679;47.966;7.958;2023-03-01T17:21:17;23.03;;;16.43;;
9280;SDS011;4679;47.966;7.958;2023-03-01T17:23:19;22.27;;;15.47;;
9280;SDS011;4679;47.966;7.958;2023-03-01T17:25:21;25.93;;;15.67;;
9280;SDS011;4679;47.966;7.958;2023-03-01T17:27:24;25.63;;;16.43;;
9280;SDS011;4679;47.966;7.958;2023-03-01T17:29:26;22.87;;;16.07;;
9280;SDS011;4679;47.966;7.958;2023-03-01T17:31:27;27.47;;;16.43;;
9280;SDS011;4679;47.966;7.958;2023-03-01T17:33:29;20.30;;;14.83;;
9280;SDS011;4679;47.966;7.958;2023-03-01T17:35:31;22.57;;;15.90;;
9280;SDS011;4679;47.966;7.958;2023-03-01T17:37:37;23.73;;;16.17;;
9280;SDS011;4679;47.966;7.958;2023-03-01T17:39:39;22.23;;;14.70;;
9280;SDS011;4679;47.966;7.958;2023-03-01T17:41:41;20.27;;;14.00;;
9280;SDS011;4679;47.966;7.958;2023-03-01T17:43:44;23.93;;;15.83;;
9280;SDS011;4679;47.966;7.958;2023-03-01T17:45:46;19.67;;;13.60;;
9280;SDS011;4679;47.966;7.958;2023-03-01T17:47:49;19.13;;;13.60;;
9280;SDS011;4679;47.966;7.958;2023-03-01T17:49:51;18.20;;;13.50;;
9280;SDS011;4679;47.966;7.958;2023-03-01T17:51:53;21.90;;;13.67;;
9280;SDS011;4679;47.966;7.958;2023-03-01T17:53:55;19.43;;;13.93;;
9280;SDS011;4679;47.966;7.958;2023-03-01T17:55:59;19.37;;;13.03;;
9280;SDS011;4679;47.966;7.958;2023-03-01T17:58:02;20.27;;;15.13;;
9280;SDS011;4679;47.966;7.958;2023-03-01T18:00:08;19.07;;;14.13;;
9280;SDS011;4679;47.966;7.958;2023-03-01T18:02:11;18.27;;;12.33;;
9280;SDS011;4679;47.966;7.958;2023-03-01T18:04:14;18.07;;;12.40;;
9280;SDS011;4679;47.966;7.958;2023-03-01T18:06:18;22.03;;;13.40;;
9280;SDS011;4679;47.966;7.958;2023-03-01T18:08:21;20.37;;;12.30;;
9280;SDS011;4679;47.966;7.958;2023-03-01T18:10:23;17.23;;;12.07;;
9280;SDS011;4679;47.966;7.958;2023-03-01T18:12:25;16.20;;;11.60;;
9280;SDS011;4679;47.966;7.958;2023-03-01T18:14:27;15.80;;;11.77;;
9280;SDS011;4679;47.966;7.958;2023-03-01T18:16:34;16.43;;;11.93;;
9280;SDS011;4679;47.966;7.958;2023-03-01T18:18:36;17.53;;;12.10;;
9280;SDS011;4679;47.966;7.958;2023-03-01T18:20:38;18.03;;;12.53;;
9280;SDS011;4679;47.966;7.958;2023-03-01T18:22:39;15.87;;;12.17;;
9280;SDS011;4679;47.966;7.958;2023-03-01T18:24:41;16.67;;;12.47;;
9280;SDS011;4679;47.966;7.958;2023-03-01T18:26:43;18.57;;;11.23;;
9280;SDS011;4679;47.966;7.958;2023-03-01T18:28:45;15.30;;;11.73;;
9280;SDS011;4679;47.966;7.958;2023-03-01T18:30:47;17.80;;;13.67;;
9280;SDS011;4679;47.966;7.958;2023-03-01T18:32:50;19.87;;;13.17;;
9280;SDS011;4679;47.966;7.958;2023-03-01T18:34:55;18.97;;;12.93;;
9280;SDS011;4679;47.966;7.958;2023-03-01T18:36:57;20.83;;;12.77;;
9280;SDS011;4679;47.966;7.958;2023-03-01T18:39:00;16.43;;;12.93;;
9280;SDS011;4679;47.966;7.958;2023-03-01T18:41:02;18.47;;;13.13;;
9280;SDS011;4679;47.966;7.958;2023-03-01T18:43:04;18.77;;;13.13;;
9280;SDS011;4679;47.966;7.958;2023-03-01T18:45:06;19.60;;;12.90;;
9280;SDS011;4679;47.966;7.958;2023-03-01T18:47:09;26.67;;;16.60;;
9280;SDS011;4679;47.966;7.958;2023-03-01T18:49:12;18.50;;;13.33;;
9280;SDS011;4679;47.966;7.958;2023-03-01T18:51:16;34.77;;;23.50;;
9280;SDS011;4679;47.966;7.958;2023-03-01T18:53:18;30.03;;;18.73;;
9280;SDS011;4679;47.966;7.958;2023-03-01T18:55:20;23.50;;;15.40;;
9280;SDS011;4679;47.966;7.958;2023-03-01T18:57:22;27.67;;;17.23;;
9280;SDS011;4679;47.966;7.958;2023-03-01T18:59:23;23.93;;;14.13;;
9280;SDS011;4679;47.966;7.958;2023-03-01T19:01:26;24.20;;;16.00;;
9280;SDS011;4679;47.966;7.958;2023-03-01T19:03:29;20.07;;;14.73;;
9280;SDS011;4679;47.966;7.958;2023-03-01T19:05:32;23.00;;;15.33;;
9280;SDS011;4679;47.966;7.958;2023-03-01T19:07:33;21.97;;;15.50;;
9280;SDS011;4679;47.966;7.958;2023-03-01T19:09:35;22.87;;;14.63;;
9280;SDS011;4679;47.966;7.958;2023-03-01T19:11:37;21.97;;;15.10;;
9280;SDS011;4679;47.966;7.958;2023-03-01T19:13:40;24.13;;;14.90;;
9280;SDS011;4679;47.966;7.958;2023-03-01T19:15:41;24.13;;;15.00;;
9280;SDS011;4679;47.966;7.958;2023-03-01T19:17:43;26.20;;;16.63;;
9280;SDS011;4679;47.966;7.958;2023-03-01T19:19:45;30.37;;;16.57;;
9280;SDS011;4679;47.966;7.958;2023-03-01T19:21:50;28.93;;;17.13;;
9280;SDS011;4679;47.966;7.958;2023-03-01T19:23:52;32.10;;;19.20;;